sensor_id;sensor_type;location;lat;lon;timestamp;pressure;altitude;pressure_sealevel;temperature;humidity
64821;BME280;51256;55.654;37.264;2022-10-16T00:01:12;100347.78;;;3.90;68.43
64821;BME280;51256;55.654;37.264;2022-10-16T00:03:39;100350.59;;;3.87;68.16
64821;BME280;51256;55.654;37.264;2022-10-16T00:06:05;100342.00;;;3.83;68.04
64821;BME280;51256;55.654;37.264;2022-10-16T00:08:31;100358.59;;;3.84;67.99
64821;BME280;51256;55.654;37.264;2022-10-16T00:11:02;100352.66;;;3.80;68.35
64821;BME280;51256;55.654;37.264;2022-10-16T00:13:29;100357.91;;;3.80;68.31
64821;BME280;51256;55.654;37.264;2022-10-16T00:15:56;100360.69;;;3.77;68.51
64821;BME280;51256;55.654;37.264;2022-10-16T00:18:23;100353.13;;;3.71;68.39
64821;BME280;51256;55.654;37.264;2022-10-16T00:20:49;100361.84;;;3.71;68.47
64821;BME280;51256;55.654;37.264;2022-10-16T00:23:14;100360.41;;;3.66;68.45
64821;BME280;51256;55.654;37.264;2022-10-16T00:25:40;100355.16;;;3.66;68.81
64821;BME280;51256;55.654;37.264;2022-10-16T00:28:05;100364.03;;;3.63;68.39
64821;BME280;51256;55.654;37.264;2022-10-16T00:30:31;100368.34;;;3.64;68.63
64821;BME280;51256;55.654;37.264;2022-10-16T00:32:56;100364.25;;;3.59;68.62
64821;BME280;51256;55.654;37.264;2022-10-16T00:35:22;100355.78;;;3.53;68.99
64821;BME280;51256;55.654;37.264;2022-10-16T00:37:47;100365.19;;;3.57;68.71
64821;BME280;51256;55.654;37.264;2022-10-16T00:40:13;100369.66;;;3.55;68.94
64821;BME280;51256;55.654;37.264;2022-10-16T00:42:38;100355.16;;;3.48;68.90
64821;BME280;51256;55.654;37.264;2022-10-16T00:45:04;100355.16;;;3.48;68.96
64821;BME280;51256;55.654;37.264;2022-10-16T00:47:34;100369.13;;;3.49;68.70
64821;BME280;51256;55.654;37.264;2022-10-16T00:50:16;100361.25;;;3.49;68.82
64821;BME280;51256;55.654;37.264;2022-10-16T00:52:46;100370.13;;;3.46;69.06
64821;BME280;51256;55.654;37.264;2022-10-16T00:55:12;100375.28;;;3.48;69.02
64821;BME280;51256;55.654;37.264;2022-10-16T00:57:39;100368.41;;;3.45;68.86
64821;BME280;51256;55.654;37.264;2022-10-16T01:00:08;100377.16;;;3.46;69.29
64821;BME280;51256;55.654;37.264;2022-10-16T01:02:34;100364.34;;;3.39;69.25
64821;BME280;51256;55.654;37.264;2022-10-16T01:05:00;100373.13;;;3.38;69.03
64821;BME280;51256;55.654;37.264;2022-10-16T01:12:54;100371.09;;;3.26;69.08
64821;BME280;51256;55.654;37.264;2022-10-16T01:18:11;100367.00;;;3.20;69.12
64821;BME280;51256;55.654;37.264;2022-10-16T01:20:56;100389.31;;;3.29;69.29
64821;BME280;51256;55.654;37.264;2022-10-16T01:23:28;100390.25;;;3.28;69.33
64821;BME280;51256;55.654;37.264;2022-10-16T01:29:30;100385.00;;;3.28;69.63
64821;BME280;51256;55.654;37.264;2022-10-16T01:32:05;100393.09;;;3.23;69.31
64821;BME280;51256;55.654;37.264;2022-10-16T01:34:55;100393.88;;;3.26;69.48
64821;BME280;51256;55.654;37.264;2022-10-16T01:40:00;100392.31;;;3.21;69.56
64821;BME280;51256;55.654;37.264;2022-10-16T01:42:35;100397.56;;;3.21;69.41
64821;BME280;51256;55.654;37.264;2022-10-16T01:45:03;100393.31;;;3.19;69.39
64821;BME280;51256;55.654;37.264;2022-10-16T01:47:32;100382.13;;;3.15;69.71
64821;BME280;51256;55.654;37.264;2022-10-16T01:50:00;100390.84;;;3.16;69.80
64821;BME280;51256;55.654;37.264;2022-10-16T01:52:28;100383.28;;;3.10;69.53
64821;BME280;51256;55.654;37.264;2022-10-16T01:54:56;100387.66;;;3.09;70.10
64821;BME280;51256;55.654;37.264;2022-10-16T01:57:24;100391.06;;;3.11;69.50
64821;BME280;51256;55.654;37.264;2022-10-16T01:59:54;100390.22;;;3.11;69.46
64821;BME280;51256;55.654;37.264;2022-10-16T02:02:22;100395.41;;;3.12;69.65
64821;BME280;51256;55.654;37.264;2022-10-16T02:04:58;100392.78;;;3.12;69.62
64821;BME280;51256;55.654;37.264;2022-10-16T02:07:27;100398.22;;;3.07;69.60
64821;BME280;51256;55.654;37.264;2022-10-16T02:09:54;100398.31;;;3.06;69.81
64821;BME280;51256;55.654;37.264;2022-10-16T02:12:31;100406.03;;;3.09;70.04
64821;BME280;51256;55.654;37.264;2022-10-16T02:14:58;100401.72;;;3.08;69.46
64821;BME280;51256;55.654;37.264;2022-10-16T02:17:24;100395.78;;;3.04;70.08
64821;BME280;51256;55.654;37.264;2022-10-16T02:19:53;100405.25;;;3.07;70.07
64821;BME280;51256;55.654;37.264;2022-10-16T02:22:28;100397.53;;;3.04;69.98
64821;BME280;51256;55.654;37.264;2022-10-16T02:27:34;100418.50;;;3.04;70.01
64821;BME280;51256;55.654;37.264;2022-10-16T02:30:31;100409.81;;;3.03;70.06
64821;BME280;51256;55.654;37.264;2022-10-16T02:33:00;100406.69;;;2.95;70.01
64821;BME280;51256;55.654;37.264;2022-10-16T02:35:27;100411.09;;;2.95;70.00
64821;BME280;51256;55.654;37.264;2022-10-16T02:37:54;100405.97;;;2.91;69.98
64821;BME280;51256;55.654;37.264;2022-10-16T02:40:21;100411.28;;;2.90;70.10
64821;BME280;51256;55.654;37.264;2022-10-16T02:42:53;100419.16;;;2.90;70.08
64821;BME280;51256;55.654;37.264;2022-10-16T02:45:20;100414.06;;;2.87;70.15
64821;BME280;51256;55.654;37.264;2022-10-16T02:47:46;100408.88;;;2.85;70.32
64821;BME280;51256;55.654;37.264;2022-10-16T02:50:11;100412.38;;;2.86;70.17
64821;BME280;51256;55.654;37.264;2022-10-16T02:52:37;100414.34;;;2.81;70.36
64821;BME280;51256;55.654;37.264;2022-10-16T02:55:03;100408.31;;;2.79;70.20
64821;BME280;51256;55.654;37.264;2022-10-16T02:57:28;100418.69;;;2.82;70.57
64821;BME280;51256;55.654;37.264;2022-10-16T02:59:54;100422.34;;;2.78;70.49
64821;BME280;51256;55.654;37.264;2022-10-16T03:02:20;100409.41;;;2.74;70.34
64821;BME280;51256;55.654;37.264;2022-10-16T03:04:45;100422.44;;;2.76;70.58
64821;BME280;51256;55.654;37.264;2022-10-16T03:07:11;100420.00;;;2.71;70.37
64821;BME280;51256;55.654;37.264;2022-10-16T03:09:36;100420.00;;;2.71;70.48
64821;BME280;51256;55.654;37.264;2022-10-16T03:12:02;100428.03;;;2.68;70.57
64821;BME280;51256;55.654;37.264;2022-10-16T03:14:27;100427.16;;;2.68;70.57
64821;BME280;51256;55.654;37.264;2022-10-16T03:16:53;100426.41;;;2.66;70.75
64821;BME280;51256;55.654;37.264;2022-10-16T03:19:18;100426.47;;;2.64;70.33
64821;BME280;51256;55.654;37.264;2022-10-16T03:21:44;100433.56;;;2.62;70.53
64821;BME280;51256;55.654;37.264;2022-10-16T03:24:10;100427.44;;;2.62;70.78
64821;BME280;51256;55.654;37.264;2022-10-16T03:26:35;100434.38;;;2.63;70.81
64821;BME280;51256;55.654;37.264;2022-10-16T03:29:01;100436.16;;;2.62;70.75
64821;BME280;51256;55.654;37.264;2022-10-16T03:31:31;100433.81;;;2.56;70.90
64821;BME280;51256;55.654;37.264;2022-10-16T03:33:56;100438.19;;;2.55;70.96
64821;BME280;51256;55.654;37.264;2022-10-16T03:36:22;100436.44;;;2.56;71.04
64821;BME280;51256;55.654;37.264;2022-10-16T03:38:48;100446.94;;;2.56;70.83
64821;BME280;51256;55.654;37.264;2022-10-16T03:41:13;100434.09;;;2.50;70.95
64821;BME280;51256;55.654;37.264;2022-10-16T03:43:38;100441.81;;;2.53;70.85
64821;BME280;51256;55.654;37.264;2022-10-16T03:46:04;100444.44;;;2.53;70.80
64821;BME280;51256;55.654;37.264;2022-10-16T03:48:30;100434.16;;;2.48;70.93
64821;BME280;51256;55.654;37.264;2022-10-16T03:50:55;100433.38;;;2.46;71.15
64821;BME280;51256;55.654;37.264;2022-10-16T03:53:21;100442.88;;;2.49;70.99
64821;BME280;51256;55.654;37.264;2022-10-16T03:55:46;100435.16;;;2.46;71.20
64821;BME280;51256;55.654;37.264;2022-10-16T03:58:12;100437.91;;;2.42;70.98
64821;BME280;51256;55.654;37.264;2022-10-16T04:00:44;100447.47;;;2.43;70.98
64821;BME280;51256;55.654;37.264;2022-10-16T04:03:10;100444.94;;;2.42;71.45
64821;BME280;51256;55.654;37.264;2022-10-16T04:05:36;100439.75;;;2.40;71.27
64821;BME280;51256;55.654;37.264;2022-10-16T04:08:02;100442.31;;;2.42;71.08
64821;BME280;51256;55.654;37.264;2022-10-16T04:10:27;100446.56;;;2.45;71.34
64821;BME280;51256;55.654;37.264;2022-10-16T04:12:53;100434.56;;;2.39;71.17
64821;BME280;51256;55.654;37.264;2022-10-16T04:15:23;100448.31;;;2.44;71.05
64821;BME280;51256;55.654;37.264;2022-10-16T04:17:49;100440.59;;;2.41;71.37
64821;BME280;51256;55.654;37.264;2022-10-16T04:20:15;100431.94;;;2.39;70.84
64821;BME280;51256;55.654;37.264;2022-10-16T04:22:41;100432.81;;;2.39;71.12
64821;BME280;51256;55.654;37.264;2022-10-16T04:25:06;100444.66;;;2.48;70.95
64821;BME280;51256;55.654;37.264;2022-10-16T04:27:32;100445.41;;;2.50;71.36
64821;BME280;51256;55.654;37.264;2022-10-16T04:30:00;100454.16;;;2.51;71.29
64821;BME280;51256;55.654;37.264;2022-10-16T04:32:27;100446.22;;;2.52;71.39
64821;BME280;51256;55.654;37.264;2022-10-16T04:34:52;100453.09;;;2.55;70.97
64821;BME280;51256;55.654;37.264;2022-10-16T04:37:18;100452.28;;;2.53;70.82
64821;BME280;51256;55.654;37.264;2022-10-16T04:39:43;100452.25;;;2.54;71.03
64821;BME280;51256;55.654;37.264;2022-10-16T04:42:10;100462.50;;;2.59;71.14
64821;BME280;51256;55.654;37.264;2022-10-16T04:44:38;100458.91;;;2.62;70.67
64821;BME280;51256;55.654;37.264;2022-10-16T04:47:04;100455.50;;;2.59;70.83
64821;BME280;51256;55.654;37.264;2022-10-16T04:49:30;100461.31;;;2.66;70.82
64821;BME280;51256;55.654;37.264;2022-10-16T04:51:55;100450.91;;;2.65;70.69
64821;BME280;51256;55.654;37.264;2022-10-16T04:54:20;100456.00;;;2.68;70.92
64821;BME280;51256;55.654;37.264;2022-10-16T04:56:46;100464.66;;;2.70;70.83
64821;BME280;51256;55.654;37.264;2022-10-16T04:59:16;100466.94;;;2.78;70.90
64821;BME280;51256;55.654;37.264;2022-10-16T05:01:42;100464.31;;;2.78;70.60
64821;BME280;51256;55.654;37.264;2022-10-16T05:04:08;100468.44;;;2.83;70.64
64821;BME280;51256;55.654;37.264;2022-10-16T05:06:34;100463.97;;;2.85;70.73
64821;BME280;51256;55.654;37.264;2022-10-16T05:09:00;100463.84;;;2.88;69.94
64821;BME280;51256;55.654;37.264;2022-10-16T05:11:25;100463.69;;;2.91;70.79
64821;BME280;51256;55.654;37.264;2022-10-16T05:13:51;100467.88;;;2.96;70.75
64821;BME280;51256;55.654;37.264;2022-10-16T05:16:16;100468.72;;;2.96;70.28
64821;BME280;51256;55.654;37.264;2022-10-16T05:18:41;100467.66;;;3.00;70.42
64821;BME280;51256;55.654;37.264;2022-10-16T05:21:07;100480.56;;;3.05;70.50
64821;BME280;51256;55.654;37.264;2022-10-16T05:23:32;100469.22;;;3.04;70.31
64821;BME280;51256;55.654;37.264;2022-10-16T05:25:59;100482.06;;;3.11;70.39
64821;BME280;51256;55.654;37.264;2022-10-16T05:28:28;100472.31;;;3.13;70.32
64821;BME280;51256;55.654;37.264;2022-10-16T05:30:55;100484.25;;;3.20;70.00
64821;BME280;51256;55.654;37.264;2022-10-16T05:33:23;100478.84;;;3.23;70.11
64821;BME280;51256;55.654;37.264;2022-10-16T05:35:49;100477.72;;;3.29;69.98
64821;BME280;51256;55.654;37.264;2022-10-16T05:38:16;100471.63;;;3.28;70.08
64821;BME280;51256;55.654;37.264;2022-10-16T05:40:41;100476.50;;;3.36;70.23
64821;BME280;51256;55.654;37.264;2022-10-16T05:43:07;100473.72;;;3.39;69.83
64821;BME280;51256;55.654;37.264;2022-10-16T05:45:33;100483.84;;;3.47;69.80
64821;BME280;51256;55.654;37.264;2022-10-16T05:47:59;100477.69;;;3.48;69.83
64821;BME280;51256;55.654;37.264;2022-10-16T05:50:26;100479.38;;;3.49;69.79
64821;BME280;51256;55.654;37.264;2022-10-16T05:52:51;100482.50;;;3.57;69.80
64821;BME280;51256;55.654;37.264;2022-10-16T05:55:17;100479.63;;;3.62;69.72
64821;BME280;51256;55.654;37.264;2022-10-16T05:57:42;100483.88;;;3.64;69.47
64821;BME280;51256;55.654;37.264;2022-10-16T06:00:08;100487.22;;;3.68;69.35
64821;BME280;51256;55.654;37.264;2022-10-16T06:02:34;100488.00;;;3.70;69.63
64821;BME280;51256;55.654;37.264;2022-10-16T06:04:59;100497.28;;;3.77;69.42
64821;BME280;51256;55.654;37.264;2022-10-16T06:07:25;100494.66;;;3.77;69.60
64821;BME280;51256;55.654;37.264;2022-10-16T06:09:51;100485.00;;;3.78;69.48
64821;BME280;51256;55.654;37.264;2022-10-16T06:12:17;100494.38;;;3.83;69.59
64821;BME280;51256;55.654;37.264;2022-10-16T06:14:44;100501.88;;;3.91;69.35
64821;BME280;51256;55.654;37.264;2022-10-16T06:17:10;100501.88;;;3.91;69.33
64821;BME280;51256;55.654;37.264;2022-10-16T06:19:35;100495.44;;;3.97;69.29
64821;BME280;51256;55.654;37.264;2022-10-16T06:22:01;100503.88;;;4.03;69.17
64821;BME280;51256;55.654;37.264;2022-10-16T06:24:27;100502.72;;;4.09;69.17
64821;BME280;51256;55.654;37.264;2022-10-16T06:26:53;100494.59;;;4.14;69.21
64821;BME280;51256;55.654;37.264;2022-10-16T06:29:18;100496.94;;;4.20;69.12
64821;BME280;51256;55.654;37.264;2022-10-16T06:31:44;100502.00;;;4.23;68.93
64821;BME280;51256;55.654;37.264;2022-10-16T06:34:10;100502.47;;;4.31;68.93
64821;BME280;51256;55.654;37.264;2022-10-16T06:36:37;100511.69;;;4.40;68.65
64821;BME280;51256;55.654;37.264;2022-10-16T06:39:03;100511.38;;;4.46;68.68
64821;BME280;51256;55.654;37.264;2022-10-16T06:41:30;100497.22;;;4.49;68.66
64821;BME280;51256;55.654;37.264;2022-10-16T06:43:56;100494.44;;;4.52;68.81
64821;BME280;51256;55.654;37.264;2022-10-16T06:46:23;100508.72;;;4.64;68.43
64821;BME280;51256;55.654;37.264;2022-10-16T06:48:49;100505.66;;;4.71;68.47
64821;BME280;51256;55.654;37.264;2022-10-16T06:51:19;100509.69;;;4.79;68.35
64821;BME280;51256;55.654;37.264;2022-10-16T06:53:50;100509.38;;;4.85;68.10
64821;BME280;51256;55.654;37.264;2022-10-16T06:56:21;100512.59;;;4.90;68.11
64821;BME280;51256;55.654;37.264;2022-10-16T06:58:48;100515.72;;;4.97;67.97
64821;BME280;51256;55.654;37.264;2022-10-16T07:01:15;100518.97;;;5.02;68.30
64821;BME280;51256;55.654;37.264;2022-10-16T07:03:42;100514.34;;;5.07;68.15
64821;BME280;51256;55.654;37.264;2022-10-16T07:06:10;100514.84;;;5.14;68.04
64821;BME280;51256;55.654;37.264;2022-10-16T07:08:37;100507.38;;;5.22;67.97
64821;BME280;51256;55.654;37.264;2022-10-16T07:11:05;100508.72;;;5.29;67.40
64821;BME280;51256;55.654;37.264;2022-10-16T07:13:33;100515.19;;;5.40;67.62
64821;BME280;51256;55.654;37.264;2022-10-16T07:16:13;100504.47;;;5.43;67.31
64821;BME280;51256;55.654;37.264;2022-10-16T07:18:40;100511.13;;;5.50;67.48
64821;BME280;51256;55.654;37.264;2022-10-16T07:21:09;100516.97;;;5.55;66.95
64821;BME280;51256;55.654;37.264;2022-10-16T07:23:36;100520.09;;;5.62;66.81
64821;BME280;51256;55.654;37.264;2022-10-16T07:26:02;100505.22;;;5.61;66.73
64821;BME280;51256;55.654;37.264;2022-10-16T07:28:28;100510.00;;;5.70;66.68
64821;BME280;51256;55.654;37.264;2022-10-16T07:30:54;100523.22;;;5.84;66.68
64821;BME280;51256;55.654;37.264;2022-10-16T07:33:20;100514.13;;;5.90;67.04
64821;BME280;51256;55.654;37.264;2022-10-16T07:35:50;100520.59;;;6.00;66.55
64821;BME280;51256;55.654;37.264;2022-10-16T07:38:16;100521.84;;;6.09;66.12
64821;BME280;51256;55.654;37.264;2022-10-16T07:40:41;100522.78;;;6.08;66.65
64821;BME280;51256;55.654;37.264;2022-10-16T07:43:07;100522.41;;;6.14;66.24
64821;BME280;51256;55.654;37.264;2022-10-16T07:45:32;100529.91;;;6.22;66.30
64821;BME280;51256;55.654;37.264;2022-10-16T07:47:58;100523.50;;;6.26;66.11
64821;BME280;51256;55.654;37.264;2022-10-16T07:50:23;100531.72;;;6.36;65.56
64821;BME280;51256;55.654;37.264;2022-10-16T07:52:49;100530.50;;;6.42;65.63
64821;BME280;51256;55.654;37.264;2022-10-16T07:55:14;100524.75;;;6.49;65.78
64821;BME280;51256;55.654;37.264;2022-10-16T07:57:40;100529.75;;;6.54;65.13
64821;BME280;51256;55.654;37.264;2022-10-16T08:00:05;100530.06;;;6.64;65.00
64821;BME280;51256;55.654;37.264;2022-10-16T08:02:31;100520.75;;;6.73;65.25
64821;BME280;51256;55.654;37.264;2022-10-16T08:04:57;100524.72;;;6.80;65.09
64821;BME280;51256;55.654;37.264;2022-10-16T08:07:22;100522.63;;;6.85;64.49
64821;BME280;51256;55.654;37.264;2022-10-16T08:09:51;100522.34;;;6.90;64.67
64821;BME280;51256;55.654;37.264;2022-10-16T08:12:18;100518.28;;;6.98;64.19
64821;BME280;51256;55.654;37.264;2022-10-16T08:14:44;100520.53;;;7.05;64.13
64821;BME280;51256;55.654;37.264;2022-10-16T08:17:09;100523.56;;;7.13;64.20
64821;BME280;51256;55.654;37.264;2022-10-16T08:19:35;100513.75;;;7.15;63.51
64821;BME280;51256;55.654;37.264;2022-10-16T08:22:00;100515.16;;;7.21;63.67
64821;BME280;51256;55.654;37.264;2022-10-16T08:24:26;100513.81;;;7.28;63.47
64821;BME280;51256;55.654;37.264;2022-10-16T08:26:53;100515.03;;;7.37;63.66
64821;BME280;51256;55.654;37.264;2022-10-16T08:29:19;100518.78;;;7.47;63.35
64821;BME280;51256;55.654;37.264;2022-10-16T08:31:45;100518.38;;;7.53;63.19
64821;BME280;51256;55.654;37.264;2022-10-16T08:34:10;100513.56;;;7.60;62.84
64821;BME280;51256;55.654;37.264;2022-10-16T08:36:35;100514.66;;;7.70;62.69
64821;BME280;51256;55.654;37.264;2022-10-16T08:39:01;100508.59;;;7.83;62.62
64821;BME280;51256;55.654;37.264;2022-10-16T08:47:06;100512.97;;;8.09;62.38
64821;BME280;51256;55.654;37.264;2022-10-16T08:49:33;100507.38;;;8.14;61.19
64821;BME280;51256;55.654;37.264;2022-10-16T08:51:59;100501.88;;;8.17;60.79
64821;BME280;51256;55.654;37.264;2022-10-16T08:54:32;100506.88;;;8.35;60.46
64821;BME280;51256;55.654;37.264;2022-10-16T08:57:14;100509.88;;;8.43;60.96
64821;BME280;51256;55.654;37.264;2022-10-16T08:59:41;100510.84;;;8.55;60.69
64821;BME280;51256;55.654;37.264;2022-10-16T09:04:57;100504.91;;;8.77;58.50
64821;BME280;51256;55.654;37.264;2022-10-16T09:13:29;100509.25;;;9.04;57.90
64821;BME280;51256;55.654;37.264;2022-10-16T09:16:19;100492.13;;;9.21;57.44
64821;BME280;51256;55.654;37.264;2022-10-16T09:19:10;100495.41;;;9.24;57.26
64821;BME280;51256;55.654;37.264;2022-10-16T09:21:42;100501.47;;;9.27;57.19
64821;BME280;51256;55.654;37.264;2022-10-16T09:26:42;100494.84;;;9.32;56.48
64821;BME280;51256;55.654;37.264;2022-10-16T09:29:12;100498.63;;;9.41;56.52
64821;BME280;51256;55.654;37.264;2022-10-16T09:31:39;100499.16;;;9.46;56.44
64821;BME280;51256;55.654;37.264;2022-10-16T09:34:05;100500.72;;;9.49;55.83
64821;BME280;51256;55.654;37.264;2022-10-16T09:36:39;100495.34;;;9.50;55.38
64821;BME280;51256;55.654;37.264;2022-10-16T09:39:08;100497.63;;;9.55;55.62
64821;BME280;51256;55.654;37.264;2022-10-16T09:41:35;100494.16;;;9.54;55.65
64821;BME280;51256;55.654;37.264;2022-10-16T09:44:03;100487.03;;;9.55;55.10
64821;BME280;51256;55.654;37.264;2022-10-16T09:46:32;100481.91;;;9.65;54.52
64821;BME280;51256;55.654;37.264;2022-10-16T09:49:00;100489.66;;;9.68;54.24
64821;BME280;51256;55.654;37.264;2022-10-16T09:51:27;100489.19;;;9.74;54.14
64821;BME280;51256;55.654;37.264;2022-10-16T09:54:01;100476.66;;;9.76;54.43
64821;BME280;51256;55.654;37.264;2022-10-16T09:56:30;100487.13;;;9.78;54.07
64821;BME280;51256;55.654;37.264;2022-10-16T09:59:00;100492.09;;;9.82;54.74
64821;BME280;51256;55.654;37.264;2022-10-16T10:01:37;100484.03;;;9.84;54.42
64821;BME280;51256;55.654;37.264;2022-10-16T10:04:04;100475.47;;;9.80;54.48
64821;BME280;51256;55.654;37.264;2022-10-16T10:06:31;100483.31;;;9.82;53.82
64821;BME280;51256;55.654;37.264;2022-10-16T10:11:48;100483.19;;;9.83;54.15
64821;BME280;51256;55.654;37.264;2022-10-16T10:14:35;100484.03;;;9.84;54.00
64821;BME280;51256;55.654;37.264;2022-10-16T10:33:34;100476.63;;;10.00;54.11
64821;BME280;51256;55.654;37.264;2022-10-16T10:52:53;100449.72;;;10.41;52.10
64821;BME280;51256;55.654;37.264;2022-10-16T10:55:31;100444.44;;;10.41;51.69
64821;BME280;51256;55.654;37.264;2022-10-16T11:03:51;100456.00;;;10.51;51.90
64821;BME280;51256;55.654;37.264;2022-10-16T11:06:12;100455.19;;;10.50;52.02
64821;BME280;51256;55.654;37.264;2022-10-16T11:08:50;100446.75;;;10.57;52.49
64821;BME280;51256;55.654;37.264;2022-10-16T11:11:24;100459.28;;;10.66;52.41
64821;BME280;51256;55.654;37.264;2022-10-16T11:13:56;100446.00;;;10.66;51.93
64821;BME280;51256;55.654;37.264;2022-10-16T11:16:30;100449.13;;;10.71;51.94
64821;BME280;51256;55.654;37.264;2022-10-16T11:19:03;100433.19;;;10.71;51.31
64821;BME280;51256;55.654;37.264;2022-10-16T11:21:42;100432.47;;;10.80;50.43
64821;BME280;51256;55.654;37.264;2022-10-16T11:24:29;100432.22;;;10.83;50.26
64821;BME280;51256;55.654;37.264;2022-10-16T11:27:05;100429.09;;;10.78;49.81
64821;BME280;51256;55.654;37.264;2022-10-16T11:29:35;100436.31;;;10.87;50.46
64821;BME280;51256;55.654;37.264;2022-10-16T11:32:19;100447.22;;;10.84;50.03
64821;BME280;51256;55.654;37.264;2022-10-16T11:35:02;100453.13;;;10.88;50.71
64821;BME280;51256;55.654;37.264;2022-10-16T11:37:33;100444.91;;;10.91;50.13
64821;BME280;51256;55.654;37.264;2022-10-16T11:40:21;100442.34;;;11.01;49.88
64821;BME280;51256;55.654;37.264;2022-10-16T11:42:58;100442.34;;;11.01;50.23
64821;BME280;51256;55.654;37.264;2022-10-16T11:45:49;100445.63;;;11.05;50.78
64821;BME280;51256;55.654;37.264;2022-10-16T11:48:26;100451.53;;;11.08;50.17
64821;BME280;51256;55.654;37.264;2022-10-16T11:53:46;100432.31;;;11.16;49.80
64821;BME280;51256;55.654;37.264;2022-10-16T11:56:17;100434.22;;;11.14;49.24
64821;BME280;51256;55.654;37.264;2022-10-16T11:58:57;100441.00;;;11.18;50.11
64821;BME280;51256;55.654;37.264;2022-10-16T12:01:56;100440.88;;;11.19;49.97
64821;BME280;51256;55.654;37.264;2022-10-16T12:04:34;100449.09;;;11.16;49.98
64821;BME280;51256;55.654;37.264;2022-10-16T12:07:09;100443.78;;;11.16;50.11
64821;BME280;51256;55.654;37.264;2022-10-16T12:09:39;100434.59;;;11.21;50.54
64821;BME280;51256;55.654;37.264;2022-10-16T12:12:26;100426.38;;;11.24;49.94
64821;BME280;51256;55.654;37.264;2022-10-16T12:15:23;100424.66;;;11.23;49.91
64821;BME280;51256;55.654;37.264;2022-10-16T12:17:46;100423.97;;;11.21;49.67
64821;BME280;51256;55.654;37.264;2022-10-16T12:22:41;100423.84;;;11.22;49.43
64821;BME280;51256;55.654;37.264;2022-10-16T12:25:34;100419.47;;;11.21;49.13
64821;BME280;51256;55.654;37.264;2022-10-16T12:28:06;100421.31;;;11.21;49.69
64821;BME280;51256;55.654;37.264;2022-10-16T12:30:43;100413.56;;;11.17;49.02
64821;BME280;51256;55.654;37.264;2022-10-16T12:33:23;100419.63;;;11.19;49.41
64821;BME280;51256;55.654;37.264;2022-10-16T12:35:49;100415.13;;;11.20;49.34
64821;BME280;51256;55.654;37.264;2022-10-16T12:38:21;100414.91;;;11.23;49.59
64821;BME280;51256;55.654;37.264;2022-10-16T12:40:59;100421.88;;;11.24;49.66
64821;BME280;51256;55.654;37.264;2022-10-16T12:43:41;100409.69;;;11.22;49.98
64821;BME280;51256;55.654;37.264;2022-10-16T12:48:39;100411.59;;;11.31;49.94
64821;BME280;51256;55.654;37.264;2022-10-16T12:51:24;100408.81;;;11.32;49.76
64821;BME280;51256;55.654;37.264;2022-10-16T12:56:51;100407.25;;;11.30;49.54
64821;BME280;51256;55.654;37.264;2022-10-16T13:10:44;100420.91;;;11.25;49.73
64821;BME280;51256;55.654;37.264;2022-10-16T13:16:08;100423.38;;;11.17;49.72
64821;BME280;51256;55.654;37.264;2022-10-16T13:29:31;100414.19;;;11.10;50.26
64821;BME280;51256;55.654;37.264;2022-10-16T13:31:58;100418.19;;;11.04;50.20
64821;BME280;51256;55.654;37.264;2022-10-16T13:34:24;100409.75;;;10.99;50.16
64821;BME280;51256;55.654;37.264;2022-10-16T13:36:51;100418.56;;;10.99;50.18
64821;BME280;51256;55.654;37.264;2022-10-16T13:39:24;100415.06;;;10.99;49.73
64821;BME280;51256;55.654;37.264;2022-10-16T13:42:10;100406.75;;;10.92;50.56
64821;BME280;51256;55.654;37.264;2022-10-16T13:44:42;100409.28;;;10.82;50.65
64821;BME280;51256;55.654;37.264;2022-10-16T13:47:26;100420.88;;;10.81;50.64
64821;BME280;51256;55.654;37.264;2022-10-16T13:50:18;100411.59;;;10.76;50.94
64821;BME280;51256;55.654;37.264;2022-10-16T13:52:44;100411.59;;;10.64;50.48
64821;BME280;51256;55.654;37.264;2022-10-16T13:55:15;100420.53;;;10.63;50.84
64821;BME280;51256;55.654;37.264;2022-10-16T13:57:42;100412.44;;;10.53;51.20
64821;BME280;51256;55.654;37.264;2022-10-16T14:00:22;100416.53;;;10.46;51.43
64821;BME280;51256;55.654;37.264;2022-10-16T14:03:02;100419.66;;;10.40;51.60
64821;BME280;51256;55.654;37.264;2022-10-16T14:05:28;100426.94;;;10.38;51.86
64821;BME280;51256;55.654;37.264;2022-10-16T14:07:55;100421.72;;;10.36;51.52
64821;BME280;51256;55.654;37.264;2022-10-16T14:10:30;100393.06;;;10.17;51.54
64821;BME280;51256;55.654;37.264;2022-10-16T14:15:23;100412.03;;;10.24;52.16
64821;BME280;51256;55.654;37.264;2022-10-16T14:17:50;100416.63;;;10.22;52.03
64821;BME280;51256;55.654;37.264;2022-10-16T14:20:17;100418.91;;;10.15;52.40
64821;BME280;51256;55.654;37.264;2022-10-16T14:22:44;100412.59;;;10.05;52.62
64821;BME280;51256;55.654;37.264;2022-10-16T14:27:56;100416.78;;;9.96;52.56
64821;BME280;51256;55.654;37.264;2022-10-16T14:30:22;100412.06;;;9.88;52.86
64821;BME280;51256;55.654;37.264;2022-10-16T14:33:00;100398.31;;;9.83;53.11
64821;BME280;51256;55.654;37.264;2022-10-16T14:35:40;100410.22;;;9.78;53.42
64821;BME280;51256;55.654;37.264;2022-10-16T14:38:06;100413.25;;;9.73;53.22
64821;BME280;51256;55.654;37.264;2022-10-16T14:40:47;100403.09;;;9.67;53.24
64821;BME280;51256;55.654;37.264;2022-10-16T14:43:29;100410.31;;;9.65;53.39
64821;BME280;51256;55.654;37.264;2022-10-16T14:45:56;100410.75;;;9.58;53.91
64821;BME280;51256;55.654;37.264;2022-10-16T14:48:23;100409.31;;;9.54;54.29
64821;BME280;51256;55.654;37.264;2022-10-16T14:50:49;100409.53;;;9.51;54.08
64821;BME280;51256;55.654;37.264;2022-10-16T14:53:14;100421.19;;;9.49;54.14
64821;BME280;51256;55.654;37.264;2022-10-16T14:55:41;100416.03;;;9.47;54.08